Pagina principale
METAR-TAF:

METAR-TAF

Aeroporti :

Piacenza, Italia

Aeroporto di Piacenza-San Damiano

latitudine: 44-55N, longitudine: 009-44E, altezza: 134 m

Osservazione

Il bollettino è stato emesso 41 minuti fa, alle 08:55 UTC
Vento 6 kt da est/nord-est, variando fra nord/nord-est e sud-est
Temperature 27°C
Umidità 51%
Pressione 1016 hPa
Visibilità 10 km o più
nessuna nube inferiore a 1500 m e nessun cumulonembo

METAR: LIMS 290855Z 07006KT 030V130 CAVOK 27/16 Q1016 RMK SKC VIS MIN 9999 WIND THR30 06005KT BLU

Ora: 11:36 (09:36 UTC)

Previsione

Il bollettino è stato emesso 1 ora e 36 minuti fa, alle 08:00 UTC
Previsione valida dal 29 alle 09 UTC al 29 alle 18 UTC
Vento 5 kt da est
Visibilità 10 km o più
nessuna nube inferiore a 1500 m e nessun cumulonembo
Temporaneamente
dal 29 alle 12 UTC al 29 alle 15 UTC
Visibilità 10 km o più
Nubi sparse ad un'altezza di 4000 ft

TAF: LIMS 290800Z 2909/2918 08005KT CAVOK TEMPO 2912/2915 9999 SCT040

Osservazioni e previsioni meteorologiche di più di 4000 aeroporti (messaggi METAR e TAF).

Le stazioni disponibili sono rappresentate dai dischi gialli e rossi sulla carta.

Puntare il mouse per vedere il nome della stazione.

Clicca sopra per visualizzare le osservazioni e previsioni meteorologiche.

Per cambiare la mappa : fare clic sui pulsanti verdi con una croce nera per ingrandire, il pulsante verde con un trattino per diminuire, o sulla freccia verde per le mappe adiacenti.


METAR-TAF: